Time;durP1;ratioP1;P1;durP2;ratioP2;P2;SDS_P1;SDS_P2;PMS_P1;PMS_P2;Temp;Humidity;BMP_temperature;BMP_pressure;BME280_temperature;BME280_humidity;BME280_pressure;Samples;Min_cycle;Max_cycle;Signal;HPM_P1;HPM_P2
2022/04/17 00:02:02;;;;;;;18.90;10.50;;;;;;;7.42;51.55;100181.20;233641;1217;139549;-58
2022/04/17 00:07:05;;;;;;;19.10;10.60;;;;;;;7.40;51.59;100180.58;233469;1217;138841;-57
2022/04/17 00:12:10;;;;;;;22.70;10.50;;;;;;;7.36;51.59;100180.86;233591;1217;139444;-61
2022/04/17 00:17:14;;;;;;;22.70;11.00;;;;;;;7.33;51.76;100183.95;233605;1216;138678;-60
2022/04/17 00:22:17;;;;;;;20.60;11.10;;;;;;;7.32;51.80;100178.86;233376;1217;138499;-59
2022/04/17 00:27:21;;;;;;;22.70;11.90;;;;;;;7.26;52.03;100174.98;233535;1217;139333;-61
2022/04/17 00:32:23;;;;;;;20.10;11.10;;;;;;;7.18;52.06;100174.52;233522;1217;138173;-60
2022/04/17 00:37:26;;;;;;;21.80;11.40;;;;;;;7.17;51.85;100167.67;233469;1217;138792;-60
2022/04/17 00:42:31;;;;;;;24.10;12.10;;;;;;;7.15;52.13;100166.48;233409;1217;138287;-61
2022/04/17 00:47:36;;;;;;;20.90;10.80;;;;;;;7.15;52.22;100169.32;232717;1217;139488;-59
2022/04/17 00:52:39;;;;;;;21.20;10.90;;;;;;;7.14;52.37;100167.95;233556;1217;139046;-60
2022/04/17 00:57:42;;;;;;;24.40;10.40;;;;;;;7.11;52.36;100165.19;233497;1217;138607;-59
2022/04/17 01:02:46;;;;;;;19.90;9.70;;;;;;;7.11;52.45;100164.49;233475;1217;138574;-61
2022/04/17 01:07:50;;;;;;;19.30;10.50;;;;;;;7.08;52.33;100157.70;232540;1217;138907;-58
2022/04/17 01:12:58;;;;;;;18.40;9.80;;;;;;;7.05;52.44;100158.68;233325;1217;138889;-59
2022/04/17 01:18:02;;;;;;;19.00;10.50;;;;;;;7.02;52.59;100155.07;233397;1217;139063;-59
2022/04/17 01:28:27;;;;;;;19.80;9.90;;;;;;;6.98;52.70;100150.41;233451;1217;138852;-59
2022/04/17 01:33:30;;;;;;;19.70;10.90;;;;;;;6.97;52.34;100144.43;233302;1217;138461;-60
2022/04/17 01:38:33;;;;;;;17.40;10.20;;;;;;;6.97;52.20;100143.40;233194;1217;138887;-61
2022/04/17 01:43:36;;;;;;;22.00;11.00;;;;;;;6.98;52.45;100142.81;233299;1217;139163;-60
2022/04/17 01:48:39;;;;;;;17.50;9.50;;;;;;;6.97;52.43;100140.39;233469;1217;139084;-59
2022/04/17 01:53:42;;;;;;;19.00;9.60;;;;;;;6.94;52.50;100139.26;233229;1217;138958;-61
2022/04/17 01:58:45;;;;;;;19.10;10.00;;;;;;;6.90;52.57;100136.19;233255;1217;138439;-57
2022/04/17 02:03:48;;;;;;;19.00;9.60;;;;;;;6.86;52.41;100129.23;233383;1217;138424;-60
2022/04/17 02:08:51;;;;;;;15.90;8.60;;;;;;;6.83;52.20;100121.39;233342;1217;139242;-60
2022/04/17 02:13:55;;;;;;;22.00;9.40;;;;;;;6.78;52.37;100117.83;233251;1217;138466;-59
2022/04/17 02:19:00;;;;;;;20.00;9.50;;;;;;;6.76;52.44;100120.73;233368;1217;140058;-60
2022/04/17 02:24:04;;;;;;;17.90;9.40;;;;;;;6.72;52.43;100119.25;233357;1217;138445;-59
2022/04/17 02:29:08;;;;;;;19.30;8.70;;;;;;;6.68;52.28;100119.35;233520;1217;138723;-60
2022/04/17 02:34:10;;;;;;;15.40;8.70;;;;;;;6.65;52.64;100122.45;233407;1217;138536;-60
2022/04/17 02:39:14;;;;;;;15.60;8.60;;;;;;;6.62;52.68;100124.82;233171;1217;139161;-59
2022/04/17 02:44:16;;;;;;;14.60;8.90;;;;;;;6.62;52.63;100128.88;233424;1217;138991;-61
2022/04/17 02:49:20;;;;;;;14.80;8.50;;;;;;;6.60;52.69;100126.46;233426;1217;138859;-60
2022/04/17 02:54:23;;;;;;;17.00;9.00;;;;;;;6.56;52.67;100129.02;233389;1215;139328;-59
2022/04/17 02:59:26;;;;;;;14.20;7.90;;;;;;;6.53;52.64;100129.65;232810;1217;141442;-59
2022/04/17 03:09:50;;;;;;;13.90;8.00;;;;;;;6.47;52.38;100129.83;232798;1217;139199;-61
2022/04/17 03:14:53;;;;;;;13.50;7.70;;;;;;;6.42;52.67;100131.21;233474;1217;138518;-60
2022/04/17 03:19:57;;;;;;;12.80;7.40;;;;;;;6.33;52.52;100132.48;233436;1215;138191;-59
2022/04/17 03:25:01;;;;;;;10.70;6.70;;;;;;;6.28;52.43;100135.45;233314;1217;138096;-58
2022/04/17 03:30:04;;;;;;;12.70;7.20;;;;;;;6.22;52.87;100137.21;233484;1217;138825;-58
2022/04/17 03:35:10;;;;;;;12.40;7.30;;;;;;;6.15;52.50;100140.55;233351;1217;138542;-60
2022/04/17 03:40:15;;;;;;;13.50;7.70;;;;;;;6.14;52.57;100137.92;233425;1217;138975;-60
2022/04/17 03:45:18;;;;;;;16.10;7.90;;;;;;;6.13;52.89;100138.13;233298;1217;139276;-60
2022/04/17 03:50:22;;;;;;;12.00;7.20;;;;;;;6.11;52.67;100136.44;233300;1217;138506;-59
2022/04/17 03:55:25;;;;;;;14.40;8.20;;;;;;;6.05;52.57;100137.48;233368;1217;138162;-58
2022/04/17 04:00:28;;;;;;;11.00;6.40;;;;;;;6.02;52.96;100140.19;233295;1217;140260;-58
2022/04/17 04:05:37;;;;;;;12.20;7.10;;;;;;;6.02;52.81;100138.61;233234;1217;138947;-58
2022/04/17 04:10:40;;;;;;;9.20;6.50;;;;;;;6.01;53.09;100137.75;233327;1217;139042;-57
2022/04/17 04:15:43;;;;;;;11.20;7.00;;;;;;;6.04;53.12;100140.31;232885;1217;137971;-59
2022/04/17 04:20:46;;;;;;;14.20;7.00;;;;;;;6.08;53.39;100141.10;233365;1216;138072;-59
2022/04/17 04:25:49;;;;;;;15.10;7.20;;;;;;;6.12;53.17;100140.10;233319;1215;138827;-59
2022/04/17 04:30:53;;;;;;;11.60;7.00;;;;;;;6.14;53.41;100142.33;233360;1217;138223;-58
2022/04/17 04:35:59;;;;;;;13.30;7.30;;;;;;;6.21;53.31;100142.00;233386;1217;138435;-55
2022/04/17 04:41:02;;;;;;;12.20;7.70;;;;;;;6.24;53.66;100141.91;233379;1217;138413;-59
2022/04/17 04:46:09;;;;;;;16.10;8.10;;;;;;;6.26;53.81;100138.84;233565;1217;139002;-59
2022/04/17 04:51:13;;;;;;;15.10;8.30;;;;;;;6.33;53.59;100139.39;233310;1217;138453;-60
2022/04/17 04:56:17;;;;;;;15.80;8.40;;;;;;;6.39;53.59;100137.98;233261;1217;140714;-58
2022/04/17 05:01:20;;;;;;;13.80;7.50;;;;;;;6.44;53.90;100133.61;233309;1217;138478;-59
2022/04/17 05:06:24;;;;;;;11.60;7.10;;;;;;;6.49;53.42;100131.89;233339;1217;138535;-59
2022/04/17 05:11:28;;;;;;;13.10;7.00;;;;;;;6.59;53.63;100130.02;233405;1217;139022;-60
2022/04/17 05:16:31;;;;;;;11.80;7.10;;;;;;;6.66;53.57;100133.69;233478;1215;138520;-59
2022/04/17 05:21:34;;;;;;;12.30;6.90;;;;;;;6.72;53.79;100132.83;233559;1217;138392;-57
2022/04/17 05:26:37;;;;;;;11.30;6.30;;;;;;;6.80;53.57;100139.13;233063;1217;138173;-60
2022/04/17 05:31:40;;;;;;;13.20;7.10;;;;;;;6.87;53.64;100138.02;233380;1217;138387;-60
2022/04/17 05:36:43;;;;;;;11.00;6.90;;;;;;;6.96;53.37;100141.30;233313;1217;137967;-59
2022/04/17 05:41:47;;;;;;;9.70;6.10;;;;;;;7.07;53.64;100146.59;233544;1217;138728;-58
2022/04/17 05:46:50;;;;;;;11.30;6.50;;;;;;;7.18;53.52;100139.58;233365;1217;138267;-60
2022/04/17 05:51:56;;;;;;;10.00;6.00;;;;;;;7.27;53.33;100137.18;233410;1216;138105;-60
2022/04/17 05:57:00;;;;;;;8.70;5.30;;;;;;;7.36;53.18;100128.95;233321;1217;139988;-60
2022/04/17 06:02:03;;;;;;;10.10;4.90;;;;;;;7.46;52.86;100132.18;233452;1217;137769;-59
2022/04/17 06:07:12;;;;;;;10.80;5.70;;;;;;;7.56;53.03;100131.86;233315;1217;138724;-58
2022/04/17 06:12:15;;;;;;;7.90;4.70;;;;;;;7.68;52.85;100136.95;233276;1217;138428;-59
2022/04/17 06:17:24;;;;;;;79.10;52.50;;;;;;;8.41;57.21;100140.62;233290;1217;137898;-60
2022/04/17 06:22:27;;;;;;;9.60;5.00;;;;;;;9.73;55.92;100132.98;233492;1217;139156;-60
2022/04/17 06:27:42;;;;;;;7.70;4.40;;;;;;;9.71;52.73;100134.33;233294;1217;138955;-58
2022/04/17 06:32:46;;;;;;;7.10;4.30;;;;;;;9.50;51.80;100132.34;233066;1217;138429;-58
2022/04/17 06:37:54;;;;;;;78.30;57.60;;;;;;;9.37;52.09;100131.23;233370;1217;138403;-59
2022/04/17 06:43:01;;;;;;;16.80;7.40;;;;;;;9.74;52.20;100132.93;233358;1217;139355;-57
2022/04/17 06:48:30;;;;;;;8.90;4.40;;;;;;;9.65;51.32;100132.61;233441;1217;138712;-59
2022/04/17 06:53:33;;;;;;;118.80;82.30;;;;;;;9.49;50.93;100129.02;233331;1217;138884;-58
2022/04/17 06:58:36;;;;;;;10.00;5.30;;;;;;;10.00;52.88;100132.20;233425;1217;139186;-61
2022/04/17 07:03:39;;;;;;;6.00;4.00;;;;;;;10.18;50.90;100125.93;233452;1217;139040;-56
2022/04/17 07:08:42;;;;;;;77.90;55.10;;;;;;;9.97;50.08;100130.94;233333;1217;138655;-60
2022/04/17 07:13:46;;;;;;;9.10;6.50;;;;;;;9.79;49.85;100125.30;233242;1217;138701;-61
2022/04/17 07:18:49;;;;;;;6.70;4.10;;;;;;;9.66;49.88;100132.02;233329;1217;138646;-59
2022/04/17 07:23:52;;;;;;;5.90;4.20;;;;;;;9.59;49.97;100135.50;231425;1217;138322;-65
2022/04/17 07:28:55;;;;;;;9.20;6.10;;;;;;;9.80;51.33;100135.36;233408;1215;140046;-61
2022/04/17 07:33:58;;;;;;;5.50;3.60;;;;;;;10.11;49.54;100138.84;233406;1217;139616;-61
2022/04/17 07:39:01;;;;;;;5.70;3.30;;;;;;;9.86;48.74;100139.36;233361;1217;139513;-62
2022/04/17 07:44:04;;;;;;;2.90;2.20;;;;;;;9.67;48.56;100137.30;233358;1217;139656;-64
2022/04/17 07:49:08;;;;;;;6.80;3.00;;;;;;;9.57;48.13;100132.05;233335;1217;139381;-61
2022/04/17 07:54:11;;;;;;;6.40;2.90;;;;;;;9.52;48.11;100121.08;233401;1217;139574;-58
2022/04/17 07:59:14;;;;;;;5.10;2.30;;;;;;;9.66;48.39;100116.61;233314;1217;139429;-61
2022/04/17 08:04:17;;;;;;;3.10;1.90;;;;;;;9.78;47.72;100114.16;233537;1217;138606;-62
2022/04/17 08:09:20;;;;;;;3.50;2.10;;;;;;;9.86;47.31;100113.14;233403;1217;139825;-61
2022/04/17 08:14:24;;;;;;;1.60;1.20;;;;;;;9.86;46.97;100114.00;233370;1217;139025;-61
2022/04/17 08:19:29;;;;;;;2.50;1.70;;;;;;;9.96;46.19;100107.42;233382;1217;139438;-60
2022/04/17 08:24:32;;;;;;;2.70;1.60;;;;;;;10.08;46.62;100107.41;233320;1217;139133;-61
2022/04/17 08:29:35;;;;;;;1.70;1.30;;;;;;;10.19;46.24;100101.98;233268;1217;139618;-61
2022/04/17 08:34:38;;;;;;;30.80;16.90;;;;;;;10.21;46.01;100107.05;233465;1217;138595;-60
2022/04/17 08:39:41;;;;;;;5.00;2.60;;;;;;;10.72;48.61;100104.61;233264;1217;139832;-59
2022/04/17 08:44:45;;;;;;;2.00;1.30;;;;;;;11.21;45.93;100101.79;233299;1218;138680;-60
2022/04/17 08:49:50;;;;;;;2.10;1.10;;;;;;;10.99;44.20;100104.98;233247;1217;138609;-59
2022/04/17 08:54:55;;;;;;;79.80;49.40;;;;;;;10.72;43.90;100098.77;233356;1217;139060;-59
2022/04/17 09:00:04;;;;;;;5.90;3.90;;;;;;;10.56;43.91;100097.69;233399;1217;138866;-59
2022/04/17 09:05:12;;;;;;;2.50;1.90;;;;;;;10.45;43.97;100096.61;233389;1217;138948;-59
2022/04/17 09:10:25;;;;;;;2.80;1.70;;;;;;;10.30;43.44;100089.29;233414;1217;138886;-61
2022/04/17 09:15:34;;;;;;;3.10;1.70;;;;;;;10.26;43.69;100078.64;233291;1217;139103;-62
2022/04/17 09:20:44;;;;;;;2.60;1.90;;;;;;;10.30;43.74;100070.48;233312;1217;138535;-60
2022/04/17 09:25:47;;;;;;;2.60;2.00;;;;;;;10.45;44.02;100059.55;233115;1217;138919;-61
2022/04/17 09:30:51;;;;;;;2.80;2.00;;;;;;;10.74;44.90;100057.49;233314;1217;138996;-59
2022/04/17 09:35:55;;;;;;;3.00;1.80;;;;;;;10.96;44.04;100047.58;233409;1217;139772;-58
2022/04/17 09:41:09;;;;;;;3.00;2.30;;;;;;;10.98;43.57;100043.08;233484;1217;139344;-61
2022/04/17 09:46:14;;;;;;;4.60;2.30;;;;;;;10.96;43.47;100041.40;233358;1217;139088;-60
2022/04/17 09:51:28;;;;;;;2.90;1.70;;;;;;;10.91;43.48;100037.16;233352;1217;138856;-60
2022/04/17 09:56:37;;;;;;;20.40;12.30;;;;;;;10.85;43.17;100029.79;233443;1217;138975;-61
2022/04/17 10:01:40;;;;;;;48.50;33.00;;;;;;;11.06;43.40;100018.48;233337;1217;139030;-62
2022/04/17 10:06:44;;;;;;;25.00;19.00;;;;;;;11.42;43.94;100010.48;233396;1217;138735;-61
2022/04/17 10:11:51;;;;;;;4.40;2.30;;;;;;;11.77;43.43;100005.41;233278;1217;139092;-60
2022/04/17 10:16:57;;;;;;;7.20;3.20;;;;;;;12.04;43.39;100001.52;233401;1217;138659;-58
2022/04/17 10:22:03;;;;;;;20.60;9.60;;;;;;;12.72;44.59;99995.33;233348;1215;139032;-58
2022/04/17 10:27:07;;;;;;;4.40;2.60;;;;;;;13.10;43.95;99992.70;233033;1216;140227;-57
2022/04/17 10:32:28;;;;;;;3.00;1.90;;;;;;;13.32;43.82;99988.77;233292;1217;138554;-58
2022/04/17 10:37:52;;;;;;;3.80;2.30;;;;;;;13.17;42.32;99985.71;233443;1217;138949;-61
2022/04/17 10:43:05;;;;;;;2.20;1.40;;;;;;;12.79;40.83;99976.06;233315;1217;138395;-61
2022/04/17 10:48:12;;;;;;;1.90;1.40;;;;;;;12.67;41.04;99971.23;233286;1217;138658;-61
2022/04/17 10:53:31;;;;;;;2.30;1.30;;;;;;;12.84;40.61;99963.54;233372;1217;138872;-63
2022/04/17 10:58:52;;;;;;;2.30;1.60;;;;;;;12.72;40.54;99955.82;233491;1217;138255;-62
2022/04/17 11:03:55;;;;;;;5.00;2.90;;;;;;;12.44;40.15;99957.39;233371;1217;138554;-60
2022/04/17 11:09:12;;;;;;;2.10;1.70;;;;;;;12.16;40.11;99957.14;233266;1217;138429;-60
2022/04/17 11:14:22;;;;;;;2.20;1.50;;;;;;;11.95;40.26;99948.83;233341;1217;138421;-61
2022/04/17 11:19:28;;;;;;;3.20;1.70;;;;;;;11.85;40.51;99942.61;233319;1217;139170;-61
2022/04/17 11:24:57;;;;;;;2.50;1.50;;;;;;;11.89;40.69;99931.91;233355;1217;138524;-61
2022/04/17 11:30:00;;;;;;;2.00;1.50;;;;;;;12.21;41.07;99920.38;233318;1217;138382;-61
2022/04/17 11:35:05;;;;;;;2.30;1.30;;;;;;;12.26;40.46;99922.20;233423;1217;139024;-60
2022/04/17 11:40:13;;;;;;;2.20;1.40;;;;;;;12.24;40.13;99919.30;233338;1217;139344;-60
2022/04/17 11:45:20;;;;;;;2.80;1.30;;;;;;;12.27;40.18;99910.23;233354;1217;140800;-61
2022/04/17 11:50:28;;;;;;;2.00;1.30;;;;;;;12.16;39.62;99901.62;233246;1217;138795;-61
2022/04/17 11:55:34;;;;;;;2.30;1.40;;;;;;;12.01;39.94;99902.27;233294;1217;138721;-60
2022/04/17 12:00:37;;;;;;;;;;;;;;;11.91;39.91;99903.52;233318;1217;139659;-61
2022/04/17 12:05:40;;;;;;;2.10;1.50;;;;;;;11.83;39.85;99895.37;233086;1217;125375;-61
2022/04/17 12:10:43;;;;;;;2.90;1.30;;;;;;;11.91;40.18;99888.17;233482;1217;138419;-61
2022/04/17 12:15:57;;;;;;;2.10;1.30;;;;;;;12.32;39.97;99881.02;233325;1217;138670;-61
2022/04/17 12:21:03;;;;;;;2.70;1.30;;;;;;;12.42;39.88;99874.20;233383;1217;139895;-61
2022/04/17 12:26:09;;;;;;;3.40;1.40;;;;;;;12.35;39.32;99872.85;233308;1217;138597;-62
2022/04/17 12:31:16;;;;;;;2.60;1.50;;;;;;;12.23;39.43;99865.66;233294;1217;138403;-61
2022/04/17 12:36:21;;;;;;;2.50;1.60;;;;;;;12.14;39.41;99860.63;233268;1217;139174;-61
2022/04/17 12:41:26;;;;;;;3.10;2.00;;;;;;;12.52;39.78;99851.38;232899;1217;138959;-61
2022/04/17 12:46:32;;;;;;;3.10;1.50;;;;;;;13.35;40.21;99841.38;233369;1217;140852;-61
2022/04/17 12:51:37;;;;;;;2.40;1.50;;;;;;;14.06;40.21;99830.39;233323;1217;139129;-60
2022/04/17 12:56:40;;;;;;;2.60;1.60;;;;;;;14.28;39.56;99823.92;233346;1217;138233;-60
2022/04/17 13:01:47;;;;;;;3.30;1.50;;;;;;;14.23;38.86;99817.67;233412;1217;138865;-61
2022/04/17 13:07:13;;;;;;;3.00;1.40;;;;;;;14.04;38.26;99814.61;233312;1217;139333;-63
2022/04/17 13:12:50;;;;;;;2.50;1.60;;;;;;;13.83;38.00;99813.44;233297;1217;139061;-63
2022/04/17 13:17:53;;;;;;;2.60;1.60;;;;;;;13.68;38.27;99804.95;233230;1217;138755;-61
2022/04/17 13:22:56;;;;;;;3.10;1.40;;;;;;;13.89;38.37;99802.02;233504;1217;139707;-60
2022/04/17 13:28:00;;;;;;;256.70;180.50;;;;;;;14.09;38.57;99797.86;233334;1217;138688;-61
2022/04/17 13:33:03;;;;;;;15.80;10.50;;;;;;;14.52;41.25;99792.17;233196;1217;139969;-62
2022/04/17 13:38:12;;;;;;;2.50;1.80;;;;;;;15.06;40.49;99786.29;233207;1217;138968;-62
2022/04/17 13:43:21;;;;;;;3.30;1.50;;;;;;;14.82;38.17;99785.98;233176;1217;138504;-63
2022/04/17 13:48:25;;;;;;;3.90;1.50;;;;;;;14.31;37.19;99791.10;233272;1217;138932;-61
2022/04/17 13:53:28;;;;;;;2.70;1.60;;;;;;;13.81;37.17;99784.46;233268;1217;138467;-63
2022/04/17 13:58:31;;;;;;;3.30;1.80;;;;;;;13.43;37.31;99782.41;233300;1217;138763;-60
2022/04/17 14:03:35;;;;;;;2.50;1.60;;;;;;;13.14;37.68;99781.65;233442;1217;139182;-62
2022/04/17 14:08:39;;;;;;;50.50;38.20;;;;;;;12.91;38.08;99778.41;233234;1217;138960;-62
2022/04/17 14:13:43;;;;;;;5.30;2.60;;;;;;;12.77;37.83;99773.73;233367;1217;138985;-62
2022/04/17 14:18:46;;;;;;;3.60;1.60;;;;;;;12.64;37.68;99772.40;232986;1217;140293;-61
2022/04/17 14:23:49;;;;;;;2.90;1.50;;;;;;;12.56;38.28;99768.19;233282;1217;138760;-60
2022/04/17 14:28:51;;;;;;;3.50;1.50;;;;;;;12.50;37.97;99767.84;233436;1217;138369;-62
2022/04/17 14:33:55;;;;;;;3.60;1.80;;;;;;;12.49;38.14;99762.92;233458;1217;138887;-61
2022/04/17 14:38:59;;;;;;;2.70;1.50;;;;;;;12.44;37.66;99754.81;233232;1217;138964;-59
2022/04/17 14:44:04;;;;;;;2.10;1.50;;;;;;;12.36;38.05;99750.70;233293;1217;138636;-62
2022/04/17 14:49:07;;;;;;;2.70;1.70;;;;;;;12.23;37.68;99754.82;233139;1217;138574;-59
2022/04/17 14:54:13;;;;;;;1.80;1.40;;;;;;;12.14;38.13;99753.73;233205;1217;138449;-61
2022/04/17 14:59:17;;;;;;;3.70;1.60;;;;;;;12.03;37.67;99746.69;233335;1217;138839;-60
2022/04/17 15:04:21;;;;;;;2.70;1.50;;;;;;;11.95;38.42;99740.95;233263;1217;138718;-59
2022/04/17 15:09:24;;;;;;;2.30;1.40;;;;;;;11.86;38.26;99740.54;233224;1217;138705;-61
2022/04/17 15:14:27;;;;;;;2.50;1.60;;;;;;;11.76;37.86;99733.45;233218;1217;138886;-61
2022/04/17 15:19:31;;;;;;;194.80;164.50;;;;;;;11.70;38.32;99727.91;233302;1217;138917;-59
2022/04/17 15:24:34;;;;;;;23.90;12.10;;;;;;;11.69;38.81;99723.70;233295;1217;139872;-59
2022/04/17 15:29:37;;;;;;;4.60;2.50;;;;;;;11.64;38.67;99720.74;233326;1217;139493;-60
2022/04/17 15:34:40;;;;;;;2.90;1.80;;;;;;;11.57;38.73;99717.77;233391;1217;139706;-61
2022/04/17 15:39:43;;;;;;;3.20;1.60;;;;;;;11.52;38.67;99713.64;233262;1217;138851;-62
2022/04/17 15:50:08;;;;;;;7.10;3.40;;;;;;;12.87;42.20;99700.10;233162;1219;139670;-61
2022/04/17 15:55:12;;;;;;;3.30;1.70;;;;;;;12.91;38.83;99698.66;233289;1217;139066;-60
2022/04/17 16:00:16;;;;;;;3.10;1.70;;;;;;;12.57;37.65;99692.88;233206;1217;137959;-59
2022/04/17 16:05:19;;;;;;;4.00;1.40;;;;;;;12.28;37.84;99691.74;233400;1217;139393;-61
2022/04/17 16:10:22;;;;;;;4.60;1.80;;;;;;;12.07;37.77;99690.80;233234;1217;138549;-63
2022/04/17 16:15:25;;;;;;;3.00;1.60;;;;;;;11.86;37.79;99687.56;233279;1217;138416;-61
2022/04/17 16:20:28;;;;;;;3.70;1.50;;;;;;;11.67;37.79;99685.20;233277;1217;138310;-59
2022/04/17 16:25:31;;;;;;;10.90;8.00;;;;;;;11.52;38.00;99685.71;233357;1217;139857;-60
2022/04/17 16:30:34;;;;;;;123.30;85.50;;;;;;;11.59;39.19;99687.46;233270;1217;138950;-61
2022/04/17 16:35:37;;;;;;;5.70;3.90;;;;;;;11.69;38.80;99678.89;233226;1217;138824;-60
2022/04/17 16:40:40;;;;;;;3.90;2.20;;;;;;;11.75;38.73;99678.19;233346;1217;138839;-59
2022/04/17 16:45:43;;;;;;;4.10;2.00;;;;;;;11.61;38.57;99676.13;233360;1217;138875;-59
2022/04/17 16:50:46;;;;;;;3.90;2.10;;;;;;;11.45;38.18;99670.62;233257;1217;138867;-61
2022/04/17 16:55:51;;;;;;;3.40;1.80;;;;;;;11.31;38.80;99663.60;233303;1217;138509;-61
2022/04/17 17:00:54;;;;;;;6.30;1.90;;;;;;;11.18;38.59;99665.36;233174;1217;139467;-60
2022/04/17 17:05:57;;;;;;;3.10;1.60;;;;;;;11.07;39.08;99667.20;233161;1218;138839;-60
2022/04/17 17:11:02;;;;;;;3.70;1.80;;;;;;;10.98;39.03;99672.84;233344;1217;138611;-61
2022/04/17 17:16:05;;;;;;;5.00;2.20;;;;;;;10.88;39.03;99675.84;233366;1217;138716;-62
2022/04/17 17:21:08;;;;;;;4.70;1.90;;;;;;;10.78;39.15;99677.11;233023;1217;139829;-62
2022/04/17 17:26:11;;;;;;;4.10;2.20;;;;;;;10.69;39.43;99677.05;233227;1217;139318;-61
2022/04/17 17:31:14;;;;;;;10.20;6.60;;;;;;;10.64;39.57;99676.41;233195;1217;138802;-61
2022/04/17 17:36:17;;;;;;;6.60;2.90;;;;;;;10.60;39.82;99676.05;233096;1220;139290;-61
2022/04/17 17:41:21;;;;;;;4.60;2.20;;;;;;;10.51;39.43;99674.23;233213;1220;141962;-61
2022/04/17 17:46:24;;;;;;;3.40;2.40;;;;;;;10.43;39.63;99676.96;233239;1217;139941;-61
2022/04/17 17:51:27;;;;;;;4.80;2.30;;;;;;;10.34;39.68;99678.63;233407;1217;138381;-62
2022/04/17 17:56:30;;;;;;;6.40;2.70;;;;;;;10.28;39.70;99676.15;233369;1217;138381;-61
2022/04/17 18:01:34;;;;;;;5.80;2.70;;;;;;;10.18;39.77;99671.11;233396;1217;140089;-60
2022/04/17 18:06:38;;;;;;;4.20;2.60;;;;;;;10.10;39.96;99675.59;233318;1217;138706;-60
2022/04/17 18:17:22;;;;;;;4.90;2.80;;;;;;;9.99;40.35;99672.26;233175;1218;139595;-62
2022/04/17 18:22:45;;;;;;;6.60;3.40;;;;;;;9.94;40.51;99670.89;233382;1217;139142;-63
2022/04/17 18:27:49;;;;;;;12.50;8.00;;;;;;;9.91;40.79;99670.17;233313;1217;138039;-60
2022/04/17 18:32:53;;;;;;;105.80;76.10;;;;;;;9.97;41.33;99671.98;233340;1217;142151;-61
2022/04/17 18:37:56;;;;;;;14.80;5.80;;;;;;;10.06;41.40;99667.98;233103;1217;140509;-63
2022/04/17 18:42:59;;;;;;;6.50;3.40;;;;;;;10.18;41.26;99662.59;233123;1217;138988;-63
2022/04/17 18:48:03;;;;;;;7.40;3.30;;;;;;;10.11;41.23;99663.85;233329;1217;138358;-62
2022/04/17 18:53:10;;;;;;;5.90;3.00;;;;;;;10.02;41.01;99658.25;233305;1217;139090;-63
2022/04/17 18:58:16;;;;;;;7.20;3.70;;;;;;;9.92;41.12;99659.78;233135;1217;138393;-63
2022/04/17 19:03:19;;;;;;;6.60;3.60;;;;;;;9.84;41.33;99658.96;233215;1217;138699;-62
2022/04/17 19:08:26;;;;;;;9.90;4.10;;;;;;;9.76;41.56;99656.31;233189;1217;139123;-62
2022/04/17 19:18:51;;;;;;;9.50;4.10;;;;;;;9.66;41.72;99652.05;233340;1217;139348;-60
2022/04/17 19:23:54;;;;;;;8.50;4.40;;;;;;;9.63;42.00;99647.20;233238;1217;140964;-60
2022/04/17 19:29:02;;;;;;;8.80;4.70;;;;;;;9.61;42.00;99641.32;233391;1217;139157;-60
2022/04/17 19:39:36;;;;;;;9.30;4.90;;;;;;;9.56;42.17;99633.95;233155;1217;140334;-61
2022/04/17 19:44:40;;;;;;;22.80;14.30;;;;;;;9.55;42.72;99626.17;233099;1217;138593;-58
2022/04/17 19:49:45;;;;;;;9.60;6.10;;;;;;;9.65;42.80;99621.99;233210;1217;138973;-60
2022/04/17 19:54:49;;;;;;;12.90;5.60;;;;;;;9.64;42.46;99612.80;232630;1217;138566;-61
2022/04/17 19:59:52;;;;;;;11.10;5.50;;;;;;;9.58;42.55;99608.87;233305;1217;138726;-60
2022/04/17 20:04:55;;;;;;;13.90;7.10;;;;;;;9.49;42.22;99603.81;233408;1216;138607;-60
2022/04/17 20:09:58;;;;;;;12.20;5.90;;;;;;;9.45;42.07;99596.39;233286;1216;138543;-61
2022/04/17 20:15:02;;;;;;;11.20;6.20;;;;;;;9.41;42.48;99593.88;233261;1217;138844;-61
2022/04/17 20:20:06;;;;;;;16.00;7.90;;;;;;;9.35;42.65;99588.56;233180;1217;138806;-60
2022/04/17 20:25:09;;;;;;;16.10;8.10;;;;;;;9.27;42.52;99583.63;233148;1217;138618;-60
2022/04/17 20:30:12;;;;;;;15.70;7.20;;;;;;;9.16;42.54;99578.83;233168;1217;139355;-60
2022/04/17 20:35:15;;;;;;;12.00;7.30;;;;;;;9.10;42.59;99571.49;233265;1217;138707;-60
2022/04/17 20:40:18;;;;;;;13.50;7.10;;;;;;;9.07;42.98;99569.00;233275;1217;138949;-60
2022/04/17 20:50:45;;;;;;;15.10;6.90;;;;;;;8.94;43.18;99564.27;233265;1217;138637;-60
2022/04/17 20:55:48;;;;;;;11.90;6.80;;;;;;;8.86;43.36;99559.69;233330;1215;138369;-61
2022/04/17 21:00:51;;;;;;;15.40;7.00;;;;;;;8.77;43.73;99557.65;233363;1217;138703;-62
2022/04/17 21:05:55;;;;;;;13.90;7.10;;;;;;;8.68;43.92;99551.35;233297;1217;138971;-62
2022/04/17 21:10:58;;;;;;;12.80;6.70;;;;;;;8.58;44.11;99548.44;233468;1217;138962;-60
2022/04/17 21:16:01;;;;;;;14.50;6.90;;;;;;;8.49;44.09;99545.48;233245;1217;138255;-61
2022/04/17 21:21:04;;;;;;;16.10;7.50;;;;;;;8.40;44.36;99545.55;233395;1217;138426;-60
2022/04/17 21:26:07;;;;;;;14.50;7.90;;;;;;;8.30;44.92;99543.14;233256;1217;138610;-59
2022/04/17 21:31:11;;;;;;;19.40;9.40;;;;;;;8.18;45.20;99542.94;233319;1217;138327;-59
2022/04/17 21:36:14;;;;;;;19.00;10.20;;;;;;;8.06;45.75;99541.00;233335;1217;138431;-58
2022/04/17 21:41:19;;;;;;;20.90;10.00;;;;;;;7.95;46.22;99535.13;233507;1217;139198;-59
2022/04/17 21:46:22;;;;;;;19.50;10.30;;;;;;;7.85;46.33;99533.45;233252;1217;138562;-59
2022/04/17 21:51:25;;;;;;;19.50;10.70;;;;;;;7.71;46.86;99534.73;233279;1217;138309;-58
2022/04/17 21:56:28;;;;;;;19.50;10.10;;;;;;;7.61;47.13;99534.12;233225;1217;138412;-61
2022/04/17 22:06:53;;;;;;;20.30;10.80;;;;;;;7.46;47.64;99528.40;233343;1217;139725;-62
2022/04/17 22:11:57;;;;;;;22.60;11.20;;;;;;;7.37;47.96;99523.98;233414;1217;139271;-60
2022/04/17 22:17:02;;;;;;;20.90;11.80;;;;;;;7.29;48.34;99518.82;233454;1217;139717;-62
2022/04/17 22:22:05;;;;;;;21.60;11.90;;;;;;;7.24;48.71;99515.48;233314;1217;139726;-62
2022/04/17 22:27:08;;;;;;;23.30;11.40;;;;;;;7.18;48.80;99510.61;233267;1217;138821;-62
2022/04/17 22:32:11;;;;;;;22.80;11.70;;;;;;;7.13;49.26;99502.37;233328;1217;138896;-63
2022/04/17 22:37:14;;;;;;;22.80;12.90;;;;;;;7.09;49.44;99500.43;233487;1217;138296;-60
2022/04/17 22:42:17;;;;;;;24.30;13.40;;;;;;;7.05;49.37;99497.73;233285;1217;138212;-60
2022/04/17 22:47:20;;;;;;;27.20;13.10;;;;;;;7.03;49.65;99491.66;233418;1217;139827;-60
2022/04/17 22:52:23;;;;;;;28.60;14.10;;;;;;;7.01;49.92;99489.08;233347;1217;138330;-62
2022/04/17 22:57:26;;;;;;;23.40;13.10;;;;;;;6.99;50.42;99484.23;233308;1217;139707;-59
2022/04/17 23:02:29;;;;;;;22.80;13.60;;;;;;;6.95;50.54;99485.62;233515;1217;138648;-59
2022/04/17 23:07:32;;;;;;;24.80;13.30;;;;;;;6.89;50.45;99476.00;233287;1217;139212;-59
2022/04/17 23:12:35;;;;;;;23.00;13.60;;;;;;;6.81;50.60;99469.25;233378;1217;138825;-60
2022/04/17 23:17:38;;;;;;;23.80;13.80;;;;;;;6.75;51.05;99457.70;233278;1217;138842;-60
2022/04/17 23:22:41;;;;;;;24.60;13.90;;;;;;;6.69;50.99;99446.09;233485;1217;138726;-59
2022/04/17 23:27:44;;;;;;;23.90;14.00;;;;;;;6.64;51.21;99441.54;233326;1217;139371;-59
2022/04/17 23:32:48;;;;;;;22.90;14.00;;;;;;;6.61;51.60;99437.25;233376;1217;138927;-59
2022/04/17 23:37:51;;;;;;;22.00;12.80;;;;;;;6.59;51.92;99429.59;233270;1217;138439;-60
2022/04/17 23:42:54;;;;;;;19.20;10.70;;;;;;;6.57;52.00;99421.36;233266;1217;138483;-61
2022/04/17 23:47:57;;;;;;;18.50;8.90;;;;;;;6.55;51.65;99419.15;233281;1217;138545;-61
2022/04/17 23:53:00;;;;;;;18.60;9.10;;;;;;;6.53;51.24;99422.77;233362;1217;139930;-61